Time;durP1;ratioP1;P1;durP2;ratioP2;P2;SDS_P1;SDS_P2;PMS_P1;PMS_P2;Temp;Humidity;BMP_temperature;BMP_pressure;BME280_temperature;BME280_humidity;BME280_pressure;Samples;Min_cycle;Max_cycle;Signal;HPM_P1;HPM_P2
2023/09/19 00:02:12;;;;;;;3.22;2.25;;;;;;;;;;5062091;28;20213;-69
2023/09/19 00:04:42;;;;;;;3.70;2.40;;;;;;;;;;5058855;28;20203;-69
2023/09/19 00:07:10;;;;;;;5.05;2.28;;;;;;;;;;5061210;28;20264;-69
2023/09/19 00:09:37;;;;;;;3.10;2.25;;;;;;;;;;5059920;28;20285;-69
2023/09/19 00:12:05;;;;;;;2.50;2.30;;;;;;;;;;5056997;28;20230;-69
2023/09/19 00:14:34;;;;;;;2.95;2.30;;;;;;;;;;5062443;28;20199;-69
2023/09/19 00:17:05;;;;;;;6.80;2.47;;;;;;;;;;5057172;28;20214;-69
2023/09/19 00:19:33;;;;;;;4.93;2.08;;;;;;;;;;5060737;28;20283;-70
2023/09/19 00:22:02;;;;;;;5.55;2.63;;;;;;;;;;5059923;28;20206;-70
2023/09/19 00:24:30;;;;;;;3.78;1.90;;;;;;;;;;5059882;28;20218;-70
2023/09/19 00:26:58;;;;;;;6.75;2.10;;;;;;;;;;5060445;28;20199;-70
2023/09/19 00:29:28;;;;;;;2.80;2.05;;;;;;;;;;5057704;28;20238;-70
2023/09/19 00:31:56;;;;;;;5.35;2.15;;;;;;;;;;5062996;28;20199;-70
2023/09/19 00:34:23;;;;;;;3.00;2.10;;;;;;;;;;5054653;28;20195;-69
2023/09/19 00:36:54;;;;;;;4.68;2.28;;;;;;;;;;5063966;28;20199;-70
2023/09/19 00:39:25;;;;;;;5.00;2.03;;;;;;;;;;5057356;28;20215;-70
2023/09/19 00:41:53;;;;;;;2.88;2.20;;;;;;;;;;5057407;28;20195;-70
2023/09/19 00:44:23;;;;;;;4.70;2.25;;;;;;;;;;5059584;28;20203;-70
2023/09/19 00:46:50;;;;;;;3.35;2.13;;;;;;;;;;5060966;28;20195;-70
2023/09/19 00:49:20;;;;;;;3.28;2.08;;;;;;;;;;5061551;28;20203;-70
2023/09/19 00:51:47;;;;;;;4.85;1.98;;;;;;;;;;5059536;28;20256;-70
2023/09/19 00:54:18;;;;;;;3.10;1.92;;;;;;;;;;5058377;28;20206;-70
2023/09/19 00:56:48;;;;;;;3.75;2.10;;;;;;;;;;5059080;28;20536;-70
2023/09/19 00:59:16;;;;;;;6.38;2.08;;;;;;;;;;5064345;28;20223;-69
2023/09/19 01:01:45;;;;;;;4.47;2.03;;;;;;;;;;5067760;28;20289;-69
2023/09/19 01:04:12;;;;;;;5.80;2.00;;;;;;;;;;5062700;28;20200;-70
2023/09/19 01:06:40;;;;;;;4.40;2.22;;;;;;;;;;5061831;28;20194;-70
2023/09/19 01:09:10;;;;;;;8.18;2.42;;;;;;;;;;5064670;28;20205;-70
2023/09/19 01:11:42;;;;;;;4.15;2.08;;;;;;;;;;5062426;28;20244;-70
2023/09/19 01:14:18;;;;;;;4.88;2.38;;;;;;;;;;5063850;28;20206;-70
2023/09/19 01:16:51;;;;;;;4.90;2.47;;;;;;;;;;5063701;28;20213;-70
2023/09/19 01:19:39;;;;;;;4.03;1.80;;;;;;;;;;5066281;28;20284;-70
2023/09/19 01:22:09;;;;;;;3.95;2.20;;;;;;;;;;5044486;28;20206;-71
2023/09/19 01:24:58;;;;;;;4.32;2.40;;;;;;;;;;5062090;28;20227;-69
2023/09/19 01:27:40;;;;;;;4.20;2.38;;;;;;;;;;5062282;28;20214;-70
2023/09/19 01:30:11;;;;;;;4.50;2.40;;;;;;;;;;5062421;28;20235;-70
2023/09/19 01:32:39;;;;;;;7.63;2.65;;;;;;;;;;5063320;28;20195;-71
2023/09/19 01:35:06;;;;;;;4.35;2.55;;;;;;;;;;5059675;28;20227;-70
2023/09/19 01:37:33;;;;;;;5.05;2.50;;;;;;;;;;5060263;28;20199;-71
2023/09/19 01:40:11;;;;;;;5.72;2.58;;;;;;;;;;5065700;28;20226;-71
2023/09/19 01:42:42;;;;;;;6.18;2.38;;;;;;;;;;5062513;28;20199;-71
2023/09/19 01:45:14;;;;;;;8.90;2.55;;;;;;;;;;5058812;28;20256;-71
2023/09/19 01:47:45;;;;;;;6.28;2.53;;;;;;;;;;5063305;28;20199;-71
2023/09/19 01:50:18;;;;;;;6.68;2.40;;;;;;;;;;5061254;28;20297;-70
2023/09/19 01:52:48;;;;;;;6.18;2.10;;;;;;;;;;5060326;28;20195;-70
2023/09/19 01:55:17;;;;;;;4.78;2.25;;;;;;;;;;5066182;28;20203;-70
2023/09/19 01:57:51;;;;;;;3.80;2.40;;;;;;;;;;5062822;28;20209;-71
2023/09/19 02:00:21;;;;;;;4.63;2.35;;;;;;;;;;5062788;28;20283;-70
2023/09/19 02:02:49;;;;;;;3.17;2.22;;;;;;;;;;5065341;28;20190;-71
2023/09/19 02:05:24;;;;;;;5.05;2.25;;;;;;;;;;5060224;28;20192;-70
2023/09/19 02:07:51;;;;;;;3.47;2.10;;;;;;;;;;5060403;28;20199;-71
2023/09/19 02:10:18;;;;;;;4.40;2.17;;;;;;;;;;5058298;28;20211;-70
2023/09/19 02:12:46;;;;;;;4.43;2.20;;;;;;;;;;5064127;28;20195;-70
2023/09/19 02:15:14;;;;;;;6.10;2.47;;;;;;;;;;5064604;28;20199;-70
2023/09/19 02:17:42;;;;;;;5.63;2.70;;;;;;;;;;5064685;28;20199;-70
2023/09/19 02:20:10;;;;;;;4.70;2.10;;;;;;;;;;5065057;28;20202;-71
2023/09/19 02:22:38;;;;;;;4.00;2.20;;;;;;;;;;5059560;28;20250;-71
2023/09/19 02:25:07;;;;;;;5.80;2.38;;;;;;;;;;5060296;28;20203;-71
2023/09/19 02:27:34;;;;;;;6.22;2.67;;;;;;;;;;5059106;28;20191;-71
2023/09/19 02:30:04;;;;;;;3.10;2.13;;;;;;;;;;5060180;28;20234;-71
2023/09/19 02:32:31;;;;;;;7.32;2.72;;;;;;;;;;5062678;28;20203;-71
2023/09/19 02:35:00;;;;;;;5.55;2.75;;;;;;;;;;5058735;28;20271;-72
2023/09/19 02:37:27;;;;;;;6.43;2.40;;;;;;;;;;5056684;28;20213;-72
2023/09/19 02:39:56;;;;;;;2.97;2.10;;;;;;;;;;5059950;28;20190;-73
2023/09/19 02:42:23;;;;;;;6.18;2.20;;;;;;;;;;5060257;28;20295;-72
2023/09/19 02:44:50;;;;;;;6.18;2.33;;;;;;;;;;5063741;28;20195;-67
2023/09/19 02:47:17;;;;;;;5.28;2.28;;;;;;;;;;5061735;28;20202;-66
2023/09/19 02:49:45;;;;;;;6.35;2.63;;;;;;;;;;5064101;28;20275;-66
2023/09/19 02:52:14;;;;;;;5.68;2.70;;;;;;;;;;5057383;28;20211;-66
2023/09/19 02:54:45;;;;;;;4.30;2.60;;;;;;;;;;5061758;28;20203;-67
2023/09/19 02:57:13;;;;;;;5.25;2.47;;;;;;;;;;5062103;28;20208;-66
2023/09/19 02:59:42;;;;;;;7.60;2.55;;;;;;;;;;5063128;28;20323;-66
2023/09/19 03:02:09;;;;;;;6.38;2.67;;;;;;;;;;5064840;28;20317;-66
2023/09/19 03:04:37;;;;;;;7.50;2.47;;;;;;;;;;5061401;28;20286;-66
2023/09/19 03:07:04;;;;;;;4.88;2.50;;;;;;;;;;5058652;28;20200;-67
2023/09/19 03:09:32;;;;;;;5.03;2.25;;;;;;;;;;5057913;28;20290;-66
2023/09/19 03:12:00;;;;;;;3.63;2.20;;;;;;;;;;5061407;28;20298;-66
2023/09/19 03:14:30;;;;;;;6.15;2.50;;;;;;;;;;5059604;28;20196;-66
2023/09/19 03:16:57;;;;;;;6.65;2.45;;;;;;;;;;5058786;28;20195;-66
2023/09/19 03:19:26;;;;;;;6.70;2.50;;;;;;;;;;5061219;28;20558;-66
2023/09/19 03:21:53;;;;;;;6.25;2.10;;;;;;;;;;5056165;28;20217;-66
2023/09/19 03:24:20;;;;;;;7.05;2.15;;;;;;;;;;5058650;28;20195;-66
2023/09/19 03:26:49;;;;;;;7.35;2.53;;;;;;;;;;5060865;28;20222;-66
2023/09/19 03:29:17;;;;;;;3.10;1.75;;;;;;;;;;5058817;28;20294;-66
2023/09/19 03:31:45;;;;;;;5.35;2.30;;;;;;;;;;5061825;28;20216;-66
2023/09/19 03:34:12;;;;;;;4.75;2.40;;;;;;;;;;5062551;28;20205;-67
2023/09/19 03:36:40;;;;;;;9.20;2.17;;;;;;;;;;5065299;28;20232;-67
2023/09/19 03:39:07;;;;;;;5.75;2.03;;;;;;;;;;5059338;28;20409;-66
2023/09/19 03:41:36;;;;;;;4.32;1.90;;;;;;;;;;5061258;28;20285;-67
2023/09/19 03:44:05;;;;;;;7.57;2.38;;;;;;;;;;5059849;28;20271;-66
2023/09/19 03:46:32;;;;;;;9.85;2.33;;;;;;;;;;5059037;28;20200;-66
2023/09/19 03:48:59;;;;;;;8.25;2.40;;;;;;;;;;5058927;28;20214;-66
2023/09/19 03:51:27;;;;;;;3.30;1.90;;;;;;;;;;5060281;28;20225;-67
2023/09/19 03:53:54;;;;;;;7.70;2.65;;;;;;;;;;5061373;28;20203;-71
2023/09/19 03:56:21;;;;;;;5.53;2.42;;;;;;;;;;5061049;28;20202;-72
2023/09/19 03:58:48;;;;;;;7.40;2.35;;;;;;;;;;5060104;28;20209;-72
2023/09/19 04:01:18;;;;;;;5.53;2.28;;;;;;;;;;5059175;28;20192;-71
2023/09/19 04:03:48;;;;;;;5.22;2.58;;;;;;;;;;5060685;28;20205;-71
2023/09/19 04:06:16;;;;;;;7.03;2.50;;;;;;;;;;5057499;28;20203;-71
2023/09/19 04:08:43;;;;;;;6.63;2.22;;;;;;;;;;5058851;28;20201;-70
2023/09/19 04:11:11;;;;;;;5.60;2.42;;;;;;;;;;5064629;28;20507;-72
2023/09/19 04:13:38;;;;;;;6.97;2.05;;;;;;;;;;5059584;28;20207;-72
2023/09/19 04:16:06;;;;;;;5.30;2.15;;;;;;;;;;5066896;28;20202;-71
2023/09/19 04:18:38;;;;;;;5.50;2.10;;;;;;;;;;5063404;28;20195;-71
2023/09/19 04:21:05;;;;;;;6.93;2.20;;;;;;;;;;5056360;28;20250;-71
2023/09/19 04:23:32;;;;;;;4.78;2.08;;;;;;;;;;5062190;28;20286;-72
2023/09/19 04:26:00;;;;;;;4.90;2.03;;;;;;;;;;5057346;28;20196;-72
2023/09/19 04:28:27;;;;;;;9.20;2.50;;;;;;;;;;5061164;28;20214;-72
2023/09/19 04:30:55;;;;;;;6.50;2.60;;;;;;;;;;5057390;28;20231;-71
2023/09/19 04:33:22;;;;;;;4.32;2.22;;;;;;;;;;5058112;28;20218;-71
2023/09/19 04:35:55;;;;;;;6.63;2.10;;;;;;;;;;5058933;28;20194;-72
2023/09/19 04:38:23;;;;;;;3.28;2.05;;;;;;;;;;5059471;28;20219;-71
2023/09/19 04:40:50;;;;;;;9.50;2.55;;;;;;;;;;5061566;28;20199;-71
2023/09/19 04:43:17;;;;;;;6.35;2.30;;;;;;;;;;5055957;28;20226;-72
2023/09/19 04:45:44;;;;;;;6.80;2.40;;;;;;;;;;5063662;28;20225;-72
2023/09/19 04:48:11;;;;;;;8.93;2.58;;;;;;;;;;5050698;28;20210;-72
2023/09/19 04:50:41;;;;;;;4.38;2.38;;;;;;;;;;5061037;28;20208;-72
2023/09/19 04:53:09;;;;;;;4.68;2.38;;;;;;;;;;5061739;28;20247;-72
2023/09/19 04:55:36;;;;;;;6.15;2.35;;;;;;;;;;5058733;28;20187;-70
2023/09/19 04:58:04;;;;;;;6.78;2.25;;;;;;;;;;5059211;28;20209;-72
2023/09/19 05:00:34;;;;;;;5.43;2.22;;;;;;;;;;5056948;28;20199;-72
2023/09/19 05:03:03;;;;;;;5.50;2.15;;;;;;;;;;5058696;28;20264;-71
2023/09/19 05:05:30;;;;;;;5.90;2.30;;;;;;;;;;5064776;28;20229;-71
2023/09/19 05:07:59;;;;;;;5.90;2.25;;;;;;;;;;5059025;28;20214;-71
2023/09/19 05:10:27;;;;;;;6.50;2.33;;;;;;;;;;5057802;28;20203;-71
2023/09/19 05:12:54;;;;;;;5.10;1.98;;;;;;;;;;5058632;28;20248;-72
2023/09/19 05:15:21;;;;;;;7.07;2.42;;;;;;;;;;5058405;28;20196;-72
2023/09/19 05:17:51;;;;;;;6.38;2.53;;;;;;;;;;5060415;28;20270;-72
2023/09/19 05:20:24;;;;;;;6.25;2.80;;;;;;;;;;5059898;28;20208;-71
2023/09/19 05:22:52;;;;;;;4.53;2.22;;;;;;;;;;5065265;28;20197;-71
2023/09/19 05:25:20;;;;;;;5.47;2.28;;;;;;;;;;5059652;28;20213;-71
2023/09/19 05:27:50;;;;;;;3.78;2.30;;;;;;;;;;5059910;28;20249;-71
2023/09/19 05:30:18;;;;;;;6.78;2.22;;;;;;;;;;5057971;28;20341;-70
2023/09/19 05:32:45;;;;;;;4.28;2.30;;;;;;;;;;5058875;28;20246;-71
2023/09/19 05:35:12;;;;;;;7.82;2.28;;;;;;;;;;5060079;28;20209;-70
2023/09/19 05:37:40;;;;;;;7.82;2.70;;;;;;;;;;5060213;28;20208;-70
2023/09/19 05:40:10;;;;;;;6.40;2.55;;;;;;;;;;5059101;28;20212;-70
2023/09/19 05:42:39;;;;;;;7.63;2.28;;;;;;;;;;5061378;28;20203;-71
2023/09/19 05:45:08;;;;;;;10.38;2.60;;;;;;;;;;5060004;28;20210;-71
2023/09/19 05:47:35;;;;;;;8.30;2.53;;;;;;;;;;5062731;28;20203;-71
2023/09/19 05:50:02;;;;;;;5.97;2.33;;;;;;;;;;5063456;28;20214;-70
2023/09/19 05:52:32;;;;;;;10.25;2.60;;;;;;;;;;5066659;28;20260;-70
2023/09/19 05:54:59;;;;;;;5.75;2.20;;;;;;;;;;5065627;28;20231;-70
2023/09/19 05:57:27;;;;;;;6.32;2.63;;;;;;;;;;5060734;28;20203;-70
2023/09/19 05:59:54;;;;;;;6.88;2.38;;;;;;;;;;5054269;28;20204;-71
2023/09/19 06:02:23;;;;;;;6.47;2.30;;;;;;;;;;5062544;28;20199;-70
2023/09/19 06:04:53;;;;;;;5.93;2.38;;;;;;;;;;5060989;28;20210;-71
2023/09/19 06:07:22;;;;;;;6.40;2.25;;;;;;;;;;5064694;28;20207;-71
2023/09/19 06:09:49;;;;;;;10.52;2.58;;;;;;;;;;5060634;28;20214;-70
2023/09/19 06:12:17;;;;;;;9.63;2.53;;;;;;;;;;5062468;28;20219;-71
2023/09/19 06:14:44;;;;;;;7.22;2.60;;;;;;;;;;5061677;28;20249;-71
2023/09/19 06:17:11;;;;;;;8.65;2.65;;;;;;;;;;5063254;28;20203;-71
2023/09/19 06:19:39;;;;;;;5.50;2.22;;;;;;;;;;5065507;28;20216;-70
2023/09/19 06:22:06;;;;;;;13.00;3.05;;;;;;;;;;5061487;28;20203;-70
2023/09/19 06:24:34;;;;;;;14.07;2.85;;;;;;;;;;5058372;28;20195;-71
2023/09/19 06:27:02;;;;;;;9.27;2.60;;;;;;;;;;5060721;28;20286;-71
2023/09/19 06:29:29;;;;;;;7.25;2.40;;;;;;;;;;5061352;28;20292;-70
2023/09/19 06:31:56;;;;;;;8.23;2.80;;;;;;;;;;5058305;28;20219;-70
2023/09/19 06:34:23;;;;;;;7.43;2.30;;;;;;;;;;5059289;28;20207;-70
2023/09/19 06:36:55;;;;;;;13.30;3.20;;;;;;;;;;5063493;28;20210;-71
2023/09/19 06:39:23;;;;;;;10.07;2.45;;;;;;;;;;5059455;28;20211;-70
2023/09/19 06:41:50;;;;;;;6.50;2.55;;;;;;;;;;5052926;28;20200;-71
2023/09/19 06:44:18;;;;;;;11.63;2.28;;;;;;;;;;5053108;28;20207;-71
2023/09/19 06:46:46;;;;;;;6.57;2.33;;;;;;;;;;5059280;28;20214;-71
2023/09/19 06:49:15;;;;;;;10.00;2.75;;;;;;;;;;5058148;28;20211;-71
2023/09/19 06:51:43;;;;;;;12.70;2.22;;;;;;;;;;5057587;28;20326;-71
2023/09/19 06:54:12;;;;;;;9.07;3.13;;;;;;;;;;5062471;28;20569;-71
2023/09/19 06:56:41;;;;;;;10.00;2.83;;;;;;;;;;5062945;28;20205;-71
2023/09/19 06:59:08;;;;;;;6.65;2.53;;;;;;;;;;5068948;28;20210;-70
2023/09/19 07:01:37;;;;;;;8.52;2.60;;;;;;;;;;5065540;28;20215;-71
2023/09/19 07:04:05;;;;;;;8.10;2.40;;;;;;;;;;5056094;28;20211;-70
2023/09/19 07:06:33;;;;;;;9.15;2.55;;;;;;;;;;5058442;28;20195;-71
2023/09/19 07:09:00;;;;;;;9.48;2.58;;;;;;;;;;5056381;28;20213;-70
2023/09/19 07:11:30;;;;;;;9.50;2.38;;;;;;;;;;5053547;28;20196;-71
2023/09/19 07:13:57;;;;;;;11.30;2.70;;;;;;;;;;5054026;28;20219;-71
2023/09/19 07:16:29;;;;;;;12.40;2.38;;;;;;;;;;5054728;28;20207;-71
2023/09/19 07:18:57;;;;;;;7.93;2.42;;;;;;;;;;5069949;28;20215;-71
2023/09/19 07:21:25;;;;;;;10.30;2.40;;;;;;;;;;5063240;28;20201;-70
2023/09/19 07:23:52;;;;;;;11.70;2.42;;;;;;;;;;5055727;28;20203;-71
2023/09/19 07:26:19;;;;;;;10.35;2.85;;;;;;;;;;5068145;28;20203;-66
2023/09/19 07:28:47;;;;;;;10.30;2.47;;;;;;;;;;5054209;28;20210;-64
2023/09/19 07:31:15;;;;;;;7.85;2.60;;;;;;;;;;5052380;28;20246;-65
2023/09/19 07:33:42;;;;;;;7.72;2.20;;;;;;;;;;5052293;28;20207;-65
2023/09/19 07:36:13;;;;;;;8.52;2.47;;;;;;;;;;5056558;28;20210;-65
2023/09/19 07:38:40;;;;;;;9.43;2.63;;;;;;;;;;5057516;28;20207;-66
2023/09/19 07:41:09;;;;;;;9.55;2.85;;;;;;;;;;5067286;28;20214;-66
2023/09/19 07:43:38;;;;;;;13.60;3.00;;;;;;;;;;5060043;28;20195;-66
2023/09/19 07:46:08;;;;;;;8.07;2.70;;;;;;;;;;5062233;28;20210;-66
2023/09/19 07:48:38;;;;;;;8.75;2.72;;;;;;;;;;5067007;28;20207;-66
2023/09/19 07:51:06;;;;;;;10.00;2.85;;;;;;;;;;5061033;28;20203;-66
2023/09/19 07:53:34;;;;;;;7.38;2.50;;;;;;;;;;5058414;28;20260;-66
2023/09/19 07:56:04;;;;;;;9.25;2.83;;;;;;;;;;5062710;28;20269;-66
2023/09/19 07:58:33;;;;;;;11.18;2.85;;;;;;;;;;5060603;28;20203;-66
2023/09/19 08:01:03;;;;;;;8.45;2.30;;;;;;;;;;5063895;28;20211;-66
2023/09/19 08:03:32;;;;;;;6.90;2.38;;;;;;;;;;5052345;28;20203;-66
2023/09/19 08:05:59;;;;;;;6.50;2.30;;;;;;;;;;5051680;28;20207;-65
2023/09/19 08:08:26;;;;;;;6.85;2.40;;;;;;;;;;5058087;28;20199;-66
2023/09/19 08:10:57;;;;;;;10.90;2.67;;;;;;;;;;5066870;28;20219;-65
2023/09/19 08:13:24;;;;;;;7.20;2.60;;;;;;;;;;5059480;28;20225;-65
2023/09/19 08:15:52;;;;;;;11.45;2.80;;;;;;;;;;5056483;28;20206;-64
2023/09/19 08:18:21;;;;;;;6.88;2.10;;;;;;;;;;5056001;28;20210;-65
2023/09/19 08:20:52;;;;;;;6.60;2.03;;;;;;;;;;5067227;28;20297;-65
2023/09/19 08:23:19;;;;;;;9.43;2.60;;;;;;;;;;5062659;28;20568;-65
2023/09/19 08:25:47;;;;;;;6.82;2.28;;;;;;;;;;5061969;28;20231;-65
2023/09/19 08:28:18;;;;;;;6.10;2.10;;;;;;;;;;5065061;28;20203;-66
2023/09/19 08:30:47;;;;;;;6.97;2.20;;;;;;;;;;5056926;28;20239;-65
2023/09/19 08:33:14;;;;;;;7.05;2.00;;;;;;;;;;5067915;28;20221;-66
2023/09/19 08:35:42;;;;;;;5.63;2.10;;;;;;;;;;5063598;28;20203;-70
2023/09/19 08:38:10;;;;;;;7.75;2.40;;;;;;;;;;5064801;28;20297;-71
2023/09/19 08:40:39;;;;;;;7.45;2.30;;;;;;;;;;5060140;28;20234;-69
2023/09/19 08:43:07;;;;;;;7.10;2.40;;;;;;;;;;5051273;28;20294;-70
2023/09/19 08:45:34;;;;;;;10.38;2.00;;;;;;;;;;5050853;28;20203;-70
2023/09/19 08:48:06;;;;;;;6.80;2.03;;;;;;;;;;5066438;28;20215;-69
2023/09/19 08:50:35;;;;;;;8.50;2.50;;;;;;;;;;5060547;28;20204;-70
2023/09/19 08:53:03;;;;;;;6.63;2.03;;;;;;;;;;5058366;28;20237;-69
2023/09/19 08:55:33;;;;;;;6.43;2.35;;;;;;;;;;5062875;28;20195;-71
2023/09/19 08:58:01;;;;;;;7.78;1.90;;;;;;;;;;5065991;28;20231;-70
2023/09/19 09:00:29;;;;;;;6.50;2.10;;;;;;;;;;5062887;28;20208;-69
2023/09/19 09:02:57;;;;;;;7.47;2.08;;;;;;;;;;5063240;28;20199;-70
2023/09/19 09:05:26;;;;;;;5.88;1.83;;;;;;;;;;5060086;28;20285;-70
2023/09/19 09:07:56;;;;;;;10.02;2.55;;;;;;;;;;5064498;28;20207;-70
2023/09/19 09:10:23;;;;;;;6.60;2.28;;;;;;;;;;5063415;28;20203;-70
2023/09/19 09:12:53;;;;;;;5.38;1.90;;;;;;;;;;5059300;28;20306;-69
2023/09/19 09:15:23;;;;;;;6.00;1.83;;;;;;;;;;5059329;28;20304;-70
2023/09/19 09:17:50;;;;;;;8.48;2.10;;;;;;;;;;5060702;28;20207;-69
2023/09/19 09:20:18;;;;;;;6.95;2.00;;;;;;;;;;5061012;28;20199;-69
2023/09/19 09:22:53;;;;;;;6.28;2.00;;;;;;;;;;5064566;28;20298;-69
2023/09/19 09:25:23;;;;;;;9.02;2.13;;;;;;;;;;5064936;28;20215;-69
2023/09/19 09:28:00;;;;;;;6.35;2.38;;;;;;;;;;5067149;28;20215;-68
2023/09/19 09:30:34;;;;;;;6.13;2.13;;;;;;;;;;5055232;28;20235;-69
2023/09/19 09:33:10;;;;;;;5.70;2.03;;;;;;;;;;5062264;28;20225;-70
2023/09/19 09:35:38;;;;;;;6.80;2.00;;;;;;;;;;5063448;28;20203;-70
2023/09/19 09:38:09;;;;;;;9.90;2.60;;;;;;;;;;5060859;28;20199;-70
2023/09/19 09:40:49;;;;;;;5.38;2.03;;;;;;;;;;5062151;28;20211;-69
2023/09/19 09:43:28;;;;;;;7.45;2.03;;;;;;;;;;5059766;28;20214;-68
2023/09/19 09:46:29;;;;;;;8.27;1.83;;;;;;;;;;5054971;28;20294;-69
2023/09/19 09:51:47;;;;;;;6.53;1.92;;;;;;;;;;5053023;28;20234;-69
2023/09/19 09:54:15;;;;;;;5.97;2.35;;;;;;;;;;5058560;28;20222;-69
2023/09/19 09:56:58;;;;;;;5.95;2.00;;;;;;;;;;5062433;28;20203;-69
2023/09/19 09:59:46;;;;;;;6.57;1.90;;;;;;;;;;5064038;28;20207;-69
2023/09/19 10:02:20;;;;;;;6.90;2.30;;;;;;;;;;5064410;28;20199;-69
2023/09/19 10:04:58;;;;;;;8.55;2.10;;;;;;;;;;5062267;28;20195;-69
2023/09/19 10:07:32;;;;;;;7.35;1.90;;;;;;;;;;5064407;28;20214;-69
2023/09/19 10:10:09;;;;;;;4.32;1.80;;;;;;;;;;5053809;28;20199;-70
2023/09/19 10:12:38;;;;;;;6.03;1.98;;;;;;;;;;5064530;28;20195;-70
2023/09/19 10:15:10;;;;;;;8.10;2.10;;;;;;;;;;5062749;28;20203;-69
2023/09/19 10:17:38;;;;;;;7.38;1.92;;;;;;;;;;5060849;28;20195;-70
2023/09/19 10:20:17;;;;;;;7.07;2.20;;;;;;;;;;5064554;28;20203;-70
2023/09/19 10:22:45;;;;;;;6.20;2.00;;;;;;;;;;5064298;28;20207;-70
2023/09/19 10:25:13;;;;;;;5.55;2.10;;;;;;;;;;5059490;28;20203;-70
2023/09/19 10:27:43;;;;;;;5.85;1.80;;;;;;;;;;5061595;28;20214;-69
2023/09/19 10:30:12;;;;;;;6.13;1.60;;;;;;;;;;5062135;28;20246;-70
2023/09/19 10:32:41;;;;;;;3.22;1.77;;;;;;;;;;5059248;28;20213;-70
2023/09/19 10:35:09;;;;;;;6.82;2.35;;;;;;;;;;5061399;28;20213;-69
2023/09/19 10:37:37;;;;;;;3.50;1.90;;;;;;;;;;5064936;28;20212;-71
2023/09/19 10:40:08;;;;;;;5.15;1.92;;;;;;;;;;5062187;28;20207;-70
2023/09/19 10:42:39;;;;;;;3.10;1.65;;;;;;;;;;5062634;28;20290;-70
2023/09/19 10:45:12;;;;;;;4.70;1.58;;;;;;;;;;5057479;28;20199;-70
2023/09/19 10:47:42;;;;;;;5.57;1.92;;;;;;;;;;5059681;28;20253;-69
2023/09/19 10:50:12;;;;;;;5.00;1.75;;;;;;;;;;5059039;28;20211;-71
2023/09/19 10:52:42;;;;;;;7.63;1.70;;;;;;;;;;5059354;28;20209;-70
2023/09/19 10:55:11;;;;;;;6.15;1.80;;;;;;;;;;5061270;28;20214;-65
2023/09/19 10:57:38;;;;;;;5.60;2.00;;;;;;;;;;5059541;28;20242;-64
2023/09/19 11:00:21;;;;;;;4.63;2.00;;;;;;;;;;5063349;28;20213;-65
2023/09/19 11:03:06;;;;;;;5.38;1.65;;;;;;;;;;5056613;28;20207;-65
2023/09/19 11:05:40;;;;;;;3.45;1.60;;;;;;;;;;5051168;28;20323;-65
2023/09/19 11:08:08;;;;;;;4.40;1.60;;;;;;;;;;5057722;28;20242;-65
2023/09/19 11:10:48;;;;;;;7.68;2.08;;;;;;;;;;5063636;28;20203;-63
2023/09/19 11:13:30;;;;;;;4.18;1.50;;;;;;;;;;5059235;28;20653;-64
2023/09/19 11:16:15;;;;;;;5.75;1.33;;;;;;;;;;5062482;28;20202;-64
2023/09/19 11:18:53;;;;;;;2.75;1.50;;;;;;;;;;5053087;28;20215;-64
2023/09/19 11:21:42;;;;;;;3.63;1.50;;;;;;;;;;5069292;28;20264;-64
2023/09/19 11:24:31;;;;;;;3.78;1.67;;;;;;;;;;5059732;28;20190;-64
2023/09/19 11:27:10;;;;;;;2.97;1.60;;;;;;;;;;5061036;28;20198;-65
2023/09/19 11:29:39;;;;;;;5.07;1.40;;;;;;;;;;5052713;28;20235;-66
2023/09/19 11:32:06;;;;;;;2.00;1.30;;;;;;;;;;5052919;28;20212;-64
2023/09/19 11:34:45;;;;;;;4.53;1.48;;;;;;;;;;5057659;28;20211;-64
2023/09/19 11:37:36;;;;;;;6.03;1.55;;;;;;;;;;5069360;28;20209;-65
2023/09/19 11:40:15;;;;;;;5.88;1.60;;;;;;;;;;5045579;28;20238;-64
2023/09/19 11:42:44;;;;;;;4.10;1.35;;;;;;;;;;5053124;28;20207;-64
2023/09/19 11:45:26;;;;;;;5.35;2.10;;;;;;;;;;5054568;28;20196;-65
2023/09/19 11:47:53;;;;;;;4.63;1.58;;;;;;;;;;5065920;28;20212;-64
2023/09/19 11:50:21;;;;;;;4.25;1.55;;;;;;;;;;5062400;28;20209;-65
2023/09/19 11:52:48;;;;;;;4.10;1.65;;;;;;;;;;5058764;28;20203;-65
2023/09/19 11:55:21;;;;;;;2.95;1.55;;;;;;;;;;5056061;28;20219;-64
2023/09/19 11:57:50;;;;;;;3.60;1.25;;;;;;;;;;5067095;28;20199;-64
2023/09/19 12:00:19;;;;;;;5.68;1.67;;;;;;;;;;5051817;28;20207;-65
2023/09/19 12:02:48;;;;;;;4.22;1.60;;;;;;;;;;5052204;28;20218;-65
2023/09/19 12:05:16;;;;;;;4.70;1.40;;;;;;;;;;5055842;28;20191;-64
2023/09/19 12:07:45;;;;;;;4.03;1.42;;;;;;;;;;5060571;28;20215;-64
2023/09/19 12:10:16;;;;;;;4.75;1.50;;;;;;;;;;5055940;28;20244;-64
2023/09/19 12:12:49;;;;;;;3.08;1.38;;;;;;;;;;5071838;28;20205;-64
2023/09/19 12:15:16;;;;;;;3.75;1.40;;;;;;;;;;5060416;28;20212;-65
2023/09/19 12:17:43;;;;;;;4.25;1.60;;;;;;;;;;5061559;28;20294;-63
2023/09/19 12:20:12;;;;;;;5.30;1.50;;;;;;;;;;5067121;28;20216;-64
2023/09/19 12:22:43;;;;;;;3.90;1.70;;;;;;;;;;5060865;28;20269;-64
2023/09/19 12:25:10;;;;;;;3.75;1.80;;;;;;;;;;5052254;28;20210;-64
2023/09/19 12:27:44;;;;;;;3.45;1.52;;;;;;;;;;5060071;28;20202;-65
2023/09/19 12:30:14;;;;;;;3.25;1.48;;;;;;;;;;5051862;28;20317;-65
2023/09/19 12:32:41;;;;;;;4.68;1.58;;;;;;;;;;5051820;28;20203;-65
2023/09/19 12:35:10;;;;;;;4.95;1.92;;;;;;;;;;5052483;28;20273;-65
2023/09/19 12:37:38;;;;;;;4.57;1.48;;;;;;;;;;5051376;28;20203;-64
2023/09/19 12:40:14;;;;;;;2.10;1.30;;;;;;;;;;5051354;28;20214;-65
2023/09/19 12:42:42;;;;;;;3.85;1.65;;;;;;;;;;5069407;28;20203;-64
2023/09/19 12:45:10;;;;;;;4.68;1.80;;;;;;;;;;5057845;28;20206;-65
2023/09/19 12:47:40;;;;;;;2.35;1.35;;;;;;;;;;5056200;28;20210;-64
2023/09/19 12:50:07;;;;;;;2.80;1.20;;;;;;;;;;5066203;28;20218;-64
2023/09/19 12:52:37;;;;;;;3.20;1.60;;;;;;;;;;5061720;28;20203;-65
2023/09/19 12:55:04;;;;;;;2.58;1.40;;;;;;;;;;5069046;28;20214;-64
2023/09/19 12:57:34;;;;;;;3.05;1.45;;;;;;;;;;5065119;28;20203;-64
2023/09/19 13:00:01;;;;;;;1.52;1.20;;;;;;;;;;5065498;28;20235;-64
2023/09/19 13:02:28;;;;;;;2.50;1.30;;;;;;;;;;5068066;28;20309;-64
2023/09/19 13:04:59;;;;;;;3.63;1.52;;;;;;;;;;5065910;28;20202;-65
2023/09/19 13:07:45;;;;;;;3.50;1.60;;;;;;;;;;5064538;28;20343;-64
2023/09/19 13:10:15;;;;;;;2.20;1.23;;;;;;;;;;5061472;28;20195;-64
2023/09/19 13:12:44;;;;;;;4.00;1.35;;;;;;;;;;5061820;28;20207;-64
2023/09/19 13:15:13;;;;;;;3.45;1.42;;;;;;;;;;5062804;28;20234;-63
2023/09/19 13:17:48;;;;;;;1.55;1.23;;;;;;;;;;5068015;28;20214;-65
2023/09/19 13:20:27;;;;;;;3.13;1.48;;;;;;;;;;5062316;28;20289;-64
2023/09/19 13:22:58;;;;;;;4.03;1.50;;;;;;;;;;5068305;28;20211;-65
2023/09/19 13:25:27;;;;;;;3.75;1.60;;;;;;;;;;5054916;28;20191;-64
2023/09/19 13:27:55;;;;;;;3.40;1.60;;;;;;;;;;5054787;28;20207;-64
2023/09/19 13:30:23;;;;;;;3.10;1.27;;;;;;;;;;5055321;28;20244;-65
2023/09/19 13:32:50;;;;;;;4.22;1.48;;;;;;;;;;5061357;28;20195;-63
2023/09/19 13:35:17;;;;;;;4.10;1.50;;;;;;;;;;5063517;28;20213;-63
2023/09/19 13:37:48;;;;;;;3.28;1.35;;;;;;;;;;5065281;28;20213;-63
2023/09/19 13:40:16;;;;;;;4.93;1.42;;;;;;;;;;5063145;28;20206;-63
2023/09/19 13:42:44;;;;;;;5.43;1.60;;;;;;;;;;5064988;28;20208;-64
2023/09/19 13:45:12;;;;;;;2.08;1.15;;;;;;;;;;5064210;28;20501;-64
2023/09/19 13:47:39;;;;;;;3.03;1.30;;;;;;;;;;5065781;28;20208;-64
2023/09/19 13:50:07;;;;;;;2.65;1.10;;;;;;;;;;5062732;28;20225;-63
2023/09/19 13:52:35;;;;;;;4.43;1.67;;;;;;;;;;5054643;28;20203;-64
2023/09/19 13:55:04;;;;;;;3.97;1.20;;;;;;;;;;5059881;28;20226;-63
2023/09/19 13:57:33;;;;;;;3.80;1.30;;;;;;;;;;5063995;28;20218;-63
2023/09/19 14:00:00;;;;;;;2.55;1.30;;;;;;;;;;5064388;28;20220;-63
2023/09/19 14:02:27;;;;;;;5.53;1.23;;;;;;;;;;5067790;28;20213;-65
2023/09/19 14:04:54;;;;;;;3.42;1.38;;;;;;;;;;5062777;28;20226;-64
2023/09/19 14:07:22;;;;;;;2.88;1.50;;;;;;;;;;5061413;28;20210;-64
2023/09/19 14:09:49;;;;;;;2.45;1.30;;;;;;;;;;5061144;28;20207;-63
2023/09/19 14:12:18;;;;;;;3.42;1.38;;;;;;;;;;5065173;28;20216;-64
2023/09/19 14:14:45;;;;;;;4.35;1.40;;;;;;;;;;5064610;28;20218;-63
2023/09/19 14:17:13;;;;;;;2.92;1.20;;;;;;;;;;5061347;28;20217;-66
2023/09/19 14:19:42;;;;;;;1.15;1.02;;;;;;;;;;5063932;28;20241;-63
2023/09/19 14:22:09;;;;;;;1.85;1.20;;;;;;;;;;5053620;28;20204;-63
2023/09/19 14:24:37;;;;;;;2.38;1.15;;;;;;;;;;5053887;28;20199;-63
2023/09/19 14:27:06;;;;;;;3.83;1.17;;;;;;;;;;5058084;28;20236;-65
2023/09/19 14:29:34;;;;;;;2.80;1.30;;;;;;;;;;5063923;28;20254;-63
2023/09/19 14:32:01;;;;;;;3.42;1.27;;;;;;;;;;5062683;28;20222;-63
2023/09/19 14:34:28;;;;;;;3.20;1.30;;;;;;;;;;5062103;28;20219;-63
2023/09/19 14:36:56;;;;;;;1.50;1.08;;;;;;;;;;5061305;28;20201;-63
2023/09/19 14:39:24;;;;;;;3.60;1.38;;;;;;;;;;5057298;28;20190;-63
2023/09/19 14:41:51;;;;;;;4.00;1.30;;;;;;;;;;5062067;28;20206;-63
2023/09/19 14:44:18;;;;;;;4.43;1.55;;;;;;;;;;5063258;28;20210;-63
2023/09/19 14:46:47;;;;;;;2.40;1.10;;;;;;;;;;5059689;28;20195;-63
2023/09/19 14:49:16;;;;;;;2.42;1.30;;;;;;;;;;5062735;28;20207;-63
2023/09/19 14:51:44;;;;;;;2.53;1.30;;;;;;;;;;5059653;28;20261;-63
2023/09/19 14:54:12;;;;;;;2.17;1.30;;;;;;;;;;5061299;28;20211;-62
2023/09/19 14:56:39;;;;;;;2.97;1.45;;;;;;;;;;5059324;28;20202;-64
2023/09/19 14:59:06;;;;;;;2.92;1.50;;;;;;;;;;5062640;28;20285;-63
2023/09/19 15:01:33;;;;;;;2.38;1.40;;;;;;;;;;5053600;28;20200;-63